sensor_id;sensor_type;location;lat;lon;timestamp;P1;durP1;ratioP1;P2;durP2;ratioP2
35667;SDS011;22158;59.280;17.806;2023-06-22T00:01:56;11.05;;;8.27;;
35667;SDS011;22158;59.280;17.806;2023-06-22T00:04:21;10.40;;;7.82;;
35667;SDS011;22158;59.280;17.806;2023-06-22T00:06:47;9.50;;;7.15;;
35667;SDS011;22158;59.280;17.806;2023-06-22T00:09:13;8.98;;;7.82;;
35667;SDS011;22158;59.280;17.806;2023-06-22T00:11:38;10.23;;;8.25;;
35667;SDS011;22158;59.280;17.806;2023-06-22T00:14:04;10.63;;;7.65;;
35667;SDS011;22158;59.280;17.806;2023-06-22T00:16:31;10.07;;;8.13;;
35667;SDS011;22158;59.280;17.806;2023-06-22T00:18:57;10.57;;;7.95;;
35667;SDS011;22158;59.280;17.806;2023-06-22T00:21:25;12.25;;;7.82;;
35667;SDS011;22158;59.280;17.806;2023-06-22T00:23:51;10.95;;;8.02;;
35667;SDS011;22158;59.280;17.806;2023-06-22T00:26:17;11.27;;;8.32;;
35667;SDS011;22158;59.280;17.806;2023-06-22T00:28:43;10.07;;;8.38;;
35667;SDS011;22158;59.280;17.806;2023-06-22T00:31:08;10.05;;;8.43;;
35667;SDS011;22158;59.280;17.806;2023-06-22T00:33:34;10.15;;;8.50;;
35667;SDS011;22158;59.280;17.806;2023-06-22T00:36:00;9.80;;;8.15;;
35667;SDS011;22158;59.280;17.806;2023-06-22T00:38:28;10.43;;;8.48;;
35667;SDS011;22158;59.280;17.806;2023-06-22T00:40:53;12.68;;;8.60;;
35667;SDS011;22158;59.280;17.806;2023-06-22T00:43:19;11.90;;;9.20;;
35667;SDS011;22158;59.280;17.806;2023-06-22T00:45:45;11.68;;;8.60;;
35667;SDS011;22158;59.280;17.806;2023-06-22T00:48:11;9.88;;;8.63;;
35667;SDS011;22158;59.280;17.806;2023-06-22T00:50:38;11.75;;;9.07;;
35667;SDS011;22158;59.280;17.806;2023-06-22T00:53:05;10.55;;;9.32;;
35667;SDS011;22158;59.280;17.806;2023-06-22T00:55:42;12.90;;;8.90;;
35667;SDS011;22158;59.280;17.806;2023-06-22T00:58:10;10.98;;;8.63;;
35667;SDS011;22158;59.280;17.806;2023-06-22T01:00:37;11.68;;;9.52;;
35667;SDS011;22158;59.280;17.806;2023-06-22T01:03:03;11.88;;;9.30;;
35667;SDS011;22158;59.280;17.806;2023-06-22T01:05:33;14.27;;;10.97;;
35667;SDS011;22158;59.280;17.806;2023-06-22T01:13:45;14.27;;;10.57;;
35667;SDS011;22158;59.280;17.806;2023-06-22T01:16:29;11.13;;;9.80;;
35667;SDS011;22158;59.280;17.806;2023-06-22T01:18:57;13.40;;;10.35;;
35667;SDS011;22158;59.280;17.806;2023-06-22T01:21:25;20.17;;;12.35;;
35667;SDS011;22158;59.280;17.806;2023-06-22T01:26:41;13.02;;;10.57;;
35667;SDS011;22158;59.280;17.806;2023-06-22T01:29:26;13.55;;;10.90;;
35667;SDS011;22158;59.280;17.806;2023-06-22T01:31:54;11.85;;;10.23;;
35667;SDS011;22158;59.280;17.806;2023-06-22T01:34:21;15.52;;;11.02;;
35667;SDS011;22158;59.280;17.806;2023-06-22T01:36:48;13.02;;;10.20;;
35667;SDS011;22158;59.280;17.806;2023-06-22T01:39:15;15.63;;;11.23;;
35667;SDS011;22158;59.280;17.806;2023-06-22T01:41:41;13.48;;;11.02;;
35667;SDS011;22158;59.280;17.806;2023-06-22T01:44:08;15.10;;;10.65;;
35667;SDS011;22158;59.280;17.806;2023-06-22T01:46:34;14.32;;;10.80;;
35667;SDS011;22158;59.280;17.806;2023-06-22T01:49:02;13.32;;;11.38;;
35667;SDS011;22158;59.280;17.806;2023-06-22T01:51:28;13.70;;;10.75;;
35667;SDS011;22158;59.280;17.806;2023-06-22T01:53:54;12.18;;;10.40;;
35667;SDS011;22158;59.280;17.806;2023-06-22T01:56:20;15.88;;;11.27;;
35667;SDS011;22158;59.280;17.806;2023-06-22T01:58:48;14.23;;;10.57;;
35667;SDS011;22158;59.280;17.806;2023-06-22T02:01:22;12.15;;;10.90;;
35667;SDS011;22158;59.280;17.806;2023-06-22T02:04:06;11.98;;;10.38;;
35667;SDS011;22158;59.280;17.806;2023-06-22T02:06:39;11.77;;;10.45;;
35667;SDS011;22158;59.280;17.806;2023-06-22T02:09:12;13.70;;;11.35;;
35667;SDS011;22158;59.280;17.806;2023-06-22T02:11:41;14.23;;;10.32;;
35667;SDS011;22158;59.280;17.806;2023-06-22T02:14:09;14.43;;;10.63;;
35667;SDS011;22158;59.280;17.806;2023-06-22T02:16:35;13.45;;;9.93;;
35667;SDS011;22158;59.280;17.806;2023-06-22T02:19:02;13.75;;;10.00;;
35667;SDS011;22158;59.280;17.806;2023-06-22T02:21:28;13.70;;;10.60;;
35667;SDS011;22158;59.280;17.806;2023-06-22T02:23:55;14.18;;;11.13;;
35667;SDS011;22158;59.280;17.806;2023-06-22T02:26:21;12.93;;;10.68;;
35667;SDS011;22158;59.280;17.806;2023-06-22T02:28:47;12.88;;;11.23;;
35667;SDS011;22158;59.280;17.806;2023-06-22T02:31:13;12.35;;;10.98;;
35667;SDS011;22158;59.280;17.806;2023-06-22T02:33:38;14.80;;;11.18;;
35667;SDS011;22158;59.280;17.806;2023-06-22T02:36:04;10.98;;;9.88;;
35667;SDS011;22158;59.280;17.806;2023-06-22T02:38:30;13.88;;;11.32;;
35667;SDS011;22158;59.280;17.806;2023-06-22T02:40:58;14.20;;;11.50;;
35667;SDS011;22158;59.280;17.806;2023-06-22T02:43:23;12.90;;;11.07;;
35667;SDS011;22158;59.280;17.806;2023-06-22T02:45:49;13.98;;;11.02;;
35667;SDS011;22158;59.280;17.806;2023-06-22T02:48:15;13.98;;;10.88;;
35667;SDS011;22158;59.280;17.806;2023-06-22T02:50:40;12.30;;;10.75;;
35667;SDS011;22158;59.280;17.806;2023-06-22T02:53:06;11.65;;;9.82;;
35667;SDS011;22158;59.280;17.806;2023-06-22T02:55:31;12.93;;;11.05;;
35667;SDS011;22158;59.280;17.806;2023-06-22T02:57:57;13.00;;;10.57;;
35667;SDS011;22158;59.280;17.806;2023-06-22T03:00:24;13.82;;;10.95;;
35667;SDS011;22158;59.280;17.806;2023-06-22T03:02:55;14.70;;;10.63;;
35667;SDS011;22158;59.280;17.806;2023-06-22T03:05:21;11.57;;;10.40;;
35667;SDS011;22158;59.280;17.806;2023-06-22T03:07:46;13.63;;;11.55;;
35667;SDS011;22158;59.280;17.806;2023-06-22T03:10:12;14.25;;;11.07;;
35667;SDS011;22158;59.280;17.806;2023-06-22T03:12:39;12.30;;;10.73;;
35667;SDS011;22158;59.280;17.806;2023-06-22T03:15:06;16.85;;;12.10;;
35667;SDS011;22158;59.280;17.806;2023-06-22T03:17:33;11.80;;;10.50;;
35667;SDS011;22158;59.280;17.806;2023-06-22T03:20:00;12.32;;;11.02;;
35667;SDS011;22158;59.280;17.806;2023-06-22T03:22:26;12.43;;;10.25;;
35667;SDS011;22158;59.280;17.806;2023-06-22T03:24:51;13.38;;;10.82;;
35667;SDS011;22158;59.280;17.806;2023-06-22T03:27:17;12.48;;;10.75;;
35667;SDS011;22158;59.280;17.806;2023-06-22T03:29:43;12.20;;;10.65;;
35667;SDS011;22158;59.280;17.806;2023-06-22T03:32:09;12.43;;;10.90;;
35667;SDS011;22158;59.280;17.806;2023-06-22T03:34:35;14.52;;;10.90;;
35667;SDS011;22158;59.280;17.806;2023-06-22T03:37:01;12.80;;;10.88;;
35667;SDS011;22158;59.280;17.806;2023-06-22T03:39:26;12.10;;;10.80;;
35667;SDS011;22158;59.280;17.806;2023-06-22T03:41:52;12.65;;;9.25;;
35667;SDS011;22158;59.280;17.806;2023-06-22T03:44:18;12.95;;;9.93;;
35667;SDS011;22158;59.280;17.806;2023-06-22T03:46:43;14.63;;;11.10;;
35667;SDS011;22158;59.280;17.806;2023-06-22T03:49:09;13.57;;;10.88;;
35667;SDS011;22158;59.280;17.806;2023-06-22T03:51:34;10.88;;;9.63;;
35667;SDS011;22158;59.280;17.806;2023-06-22T03:54:00;12.50;;;9.80;;
35667;SDS011;22158;59.280;17.806;2023-06-22T03:56:26;14.90;;;10.30;;
35667;SDS011;22158;59.280;17.806;2023-06-22T03:58:51;10.93;;;9.40;;
35667;SDS011;22158;59.280;17.806;2023-06-22T04:01:17;11.02;;;9.88;;
35667;SDS011;22158;59.280;17.806;2023-06-22T04:03:43;12.13;;;9.32;;
35667;SDS011;22158;59.280;17.806;2023-06-22T04:06:08;10.50;;;8.15;;
35667;SDS011;22158;59.280;17.806;2023-06-22T04:08:34;10.85;;;8.57;;
35667;SDS011;22158;59.280;17.806;2023-06-22T04:10:59;11.15;;;8.10;;
35667;SDS011;22158;59.280;17.806;2023-06-22T04:13:25;10.07;;;8.93;;
35667;SDS011;22158;59.280;17.806;2023-06-22T04:15:50;10.60;;;8.65;;
35667;SDS011;22158;59.280;17.806;2023-06-22T04:18:16;9.88;;;8.50;;
35667;SDS011;22158;59.280;17.806;2023-06-22T04:20:41;10.48;;;8.27;;
35667;SDS011;22158;59.280;17.806;2023-06-22T04:23:07;9.55;;;8.38;;
35667;SDS011;22158;59.280;17.806;2023-06-22T04:25:33;10.93;;;8.15;;
35667;SDS011;22158;59.280;17.806;2023-06-22T04:27:58;10.68;;;8.43;;
35667;SDS011;22158;59.280;17.806;2023-06-22T04:30:24;9.93;;;8.52;;
35667;SDS011;22158;59.280;17.806;2023-06-22T04:32:49;8.98;;;8.00;;
35667;SDS011;22158;59.280;17.806;2023-06-22T04:35:21;10.30;;;8.43;;
35667;SDS011;22158;59.280;17.806;2023-06-22T04:37:50;9.10;;;7.90;;
35667;SDS011;22158;59.280;17.806;2023-06-22T04:40:19;11.30;;;8.82;;
35667;SDS011;22158;59.280;17.806;2023-06-22T04:42:48;11.80;;;9.23;;
35667;SDS011;22158;59.280;17.806;2023-06-22T04:45:18;12.40;;;8.52;;
35667;SDS011;22158;59.280;17.806;2023-06-22T04:47:44;10.95;;;7.97;;
35667;SDS011;22158;59.280;17.806;2023-06-22T04:50:10;11.00;;;7.80;;
35667;SDS011;22158;59.280;17.806;2023-06-22T04:52:36;10.73;;;7.80;;
35667;SDS011;22158;59.280;17.806;2023-06-22T04:55:02;9.52;;;8.40;;
35667;SDS011;22158;59.280;17.806;2023-06-22T04:57:28;9.45;;;7.57;;
35667;SDS011;22158;59.280;17.806;2023-06-22T04:59:57;9.73;;;8.07;;
35667;SDS011;22158;59.280;17.806;2023-06-22T05:02:36;10.02;;;8.10;;
35667;SDS011;22158;59.280;17.806;2023-06-22T05:05:02;9.57;;;8.10;;
35667;SDS011;22158;59.280;17.806;2023-06-22T05:07:32;9.23;;;8.30;;
35667;SDS011;22158;59.280;17.806;2023-06-22T05:10:01;10.35;;;8.55;;
35667;SDS011;22158;59.280;17.806;2023-06-22T05:12:28;9.95;;;8.48;;
35667;SDS011;22158;59.280;17.806;2023-06-22T05:14:54;11.88;;;8.80;;
35667;SDS011;22158;59.280;17.806;2023-06-22T05:17:20;9.88;;;8.88;;
35667;SDS011;22158;59.280;17.806;2023-06-22T05:19:45;10.93;;;9.10;;
35667;SDS011;22158;59.280;17.806;2023-06-22T05:22:14;10.50;;;8.45;;
35667;SDS011;22158;59.280;17.806;2023-06-22T05:24:41;11.32;;;7.82;;
35667;SDS011;22158;59.280;17.806;2023-06-22T05:27:07;11.32;;;7.75;;
35667;SDS011;22158;59.280;17.806;2023-06-22T05:29:33;12.88;;;8.25;;
35667;SDS011;22158;59.280;17.806;2023-06-22T05:31:58;10.18;;;7.85;;
35667;SDS011;22158;59.280;17.806;2023-06-22T05:34:24;10.65;;;8.00;;
35667;SDS011;22158;59.280;17.806;2023-06-22T05:36:49;9.73;;;6.85;;
35667;SDS011;22158;59.280;17.806;2023-06-22T05:39:15;9.13;;;7.35;;
35667;SDS011;22158;59.280;17.806;2023-06-22T05:41:41;9.57;;;7.70;;
35667;SDS011;22158;59.280;17.806;2023-06-22T05:44:08;8.30;;;7.22;;
35667;SDS011;22158;59.280;17.806;2023-06-22T05:46:33;9.77;;;7.28;;
35667;SDS011;22158;59.280;17.806;2023-06-22T05:48:59;10.40;;;7.15;;
35667;SDS011;22158;59.280;17.806;2023-06-22T05:51:24;10.52;;;7.10;;
35667;SDS011;22158;59.280;17.806;2023-06-22T05:53:50;9.73;;;7.03;;
35667;SDS011;22158;59.280;17.806;2023-06-22T05:56:16;8.00;;;6.85;;
35667;SDS011;22158;59.280;17.806;2023-06-22T05:58:42;7.32;;;6.00;;
35667;SDS011;22158;59.280;17.806;2023-06-22T06:01:07;8.50;;;5.55;;
35667;SDS011;22158;59.280;17.806;2023-06-22T06:03:33;7.25;;;5.57;;
35667;SDS011;22158;59.280;17.806;2023-06-22T06:05:58;7.40;;;5.25;;
35667;SDS011;22158;59.280;17.806;2023-06-22T06:08:24;8.45;;;6.40;;
35667;SDS011;22158;59.280;17.806;2023-06-22T06:10:50;7.10;;;5.32;;
35667;SDS011;22158;59.280;17.806;2023-06-22T06:13:18;6.68;;;5.05;;
35667;SDS011;22158;59.280;17.806;2023-06-22T06:15:43;7.28;;;5.15;;
35667;SDS011;22158;59.280;17.806;2023-06-22T06:18:09;6.78;;;5.43;;
35667;SDS011;22158;59.280;17.806;2023-06-22T06:20:34;7.85;;;5.28;;
35667;SDS011;22158;59.280;17.806;2023-06-22T06:23:00;6.55;;;5.60;;
35667;SDS011;22158;59.280;17.806;2023-06-22T06:25:26;7.97;;;5.00;;
35667;SDS011;22158;59.280;17.806;2023-06-22T06:27:52;7.72;;;5.45;;
35667;SDS011;22158;59.280;17.806;2023-06-22T06:30:19;9.65;;;5.10;;
35667;SDS011;22158;59.280;17.806;2023-06-22T06:32:45;8.27;;;4.90;;
35667;SDS011;22158;59.280;17.806;2023-06-22T06:35:12;8.30;;;5.20;;
35667;SDS011;22158;59.280;17.806;2023-06-22T06:37:40;11.35;;;5.22;;
35667;SDS011;22158;59.280;17.806;2023-06-22T06:40:07;7.18;;;5.00;;
35667;SDS011;22158;59.280;17.806;2023-06-22T06:42:35;9.35;;;5.50;;
35667;SDS011;22158;59.280;17.806;2023-06-22T06:45:05;10.15;;;5.82;;
35667;SDS011;22158;59.280;17.806;2023-06-22T06:47:31;7.88;;;5.05;;
35667;SDS011;22158;59.280;17.806;2023-06-22T06:49:57;9.98;;;4.85;;
35667;SDS011;22158;59.280;17.806;2023-06-22T06:52:23;7.55;;;5.25;;
35667;SDS011;22158;59.280;17.806;2023-06-22T06:54:48;7.93;;;5.45;;
35667;SDS011;22158;59.280;17.806;2023-06-22T06:57:14;9.40;;;5.30;;
35667;SDS011;22158;59.280;17.806;2023-06-22T06:59:41;7.75;;;4.53;;
35667;SDS011;22158;59.280;17.806;2023-06-22T07:02:07;10.15;;;5.43;;
35667;SDS011;22158;59.280;17.806;2023-06-22T07:04:32;6.65;;;4.28;;
35667;SDS011;22158;59.280;17.806;2023-06-22T07:06:58;9.70;;;4.80;;
35667;SDS011;22158;59.280;17.806;2023-06-22T07:09:26;7.35;;;5.03;;
35667;SDS011;22158;59.280;17.806;2023-06-22T07:11:51;8.00;;;5.32;;
35667;SDS011;22158;59.280;17.806;2023-06-22T07:14:17;8.30;;;5.32;;
35667;SDS011;22158;59.280;17.806;2023-06-22T07:16:42;7.30;;;5.13;;
35667;SDS011;22158;59.280;17.806;2023-06-22T07:19:11;7.38;;;4.88;;
35667;SDS011;22158;59.280;17.806;2023-06-22T07:21:37;9.88;;;5.32;;
35667;SDS011;22158;59.280;17.806;2023-06-22T07:24:04;9.95;;;5.30;;
35667;SDS011;22158;59.280;17.806;2023-06-22T07:26:30;10.32;;;5.13;;
35667;SDS011;22158;59.280;17.806;2023-06-22T07:28:56;8.32;;;4.45;;
35667;SDS011;22158;59.280;17.806;2023-06-22T07:31:23;8.23;;;5.40;;
35667;SDS011;22158;59.280;17.806;2023-06-22T07:33:50;7.15;;;4.13;;
35667;SDS011;22158;59.280;17.806;2023-06-22T07:36:16;7.38;;;5.32;;
35667;SDS011;22158;59.280;17.806;2023-06-22T07:38:42;7.28;;;4.43;;
35667;SDS011;22158;59.280;17.806;2023-06-22T07:41:08;9.40;;;4.38;;
35667;SDS011;22158;59.280;17.806;2023-06-22T07:43:33;6.85;;;5.30;;
35667;SDS011;22158;59.280;17.806;2023-06-22T07:46:02;10.40;;;4.90;;
35667;SDS011;22158;59.280;17.806;2023-06-22T07:48:28;9.65;;;5.00;;
35667;SDS011;22158;59.280;17.806;2023-06-22T07:50:53;9.50;;;4.82;;
35667;SDS011;22158;59.280;17.806;2023-06-22T07:53:20;5.90;;;4.55;;
35667;SDS011;22158;59.280;17.806;2023-06-22T07:55:46;5.65;;;4.32;;
35667;SDS011;22158;59.280;17.806;2023-06-22T07:58:11;8.70;;;4.78;;
35667;SDS011;22158;59.280;17.806;2023-06-22T08:00:37;13.48;;;5.00;;
35667;SDS011;22158;59.280;17.806;2023-06-22T08:03:02;11.13;;;5.38;;
35667;SDS011;22158;59.280;17.806;2023-06-22T08:05:30;10.15;;;4.93;;
35667;SDS011;22158;59.280;17.806;2023-06-22T08:07:55;6.75;;;4.47;;
35667;SDS011;22158;59.280;17.806;2023-06-22T08:10:21;8.27;;;5.45;;
35667;SDS011;22158;59.280;17.806;2023-06-22T08:12:47;9.65;;;5.13;;
35667;SDS011;22158;59.280;17.806;2023-06-22T08:15:12;11.30;;;5.60;;
35667;SDS011;22158;59.280;17.806;2023-06-22T08:17:38;6.75;;;5.10;;
35667;SDS011;22158;59.280;17.806;2023-06-22T08:20:05;7.95;;;4.85;;
35667;SDS011;22158;59.280;17.806;2023-06-22T08:22:35;7.30;;;5.03;;
35667;SDS011;22158;59.280;17.806;2023-06-22T08:25:02;6.65;;;4.32;;
35667;SDS011;22158;59.280;17.806;2023-06-22T08:27:28;8.52;;;5.03;;
35667;SDS011;22158;59.280;17.806;2023-06-22T08:29:56;9.38;;;4.40;;
35667;SDS011;22158;59.280;17.806;2023-06-22T08:32:24;5.63;;;4.32;;
35667;SDS011;22158;59.280;17.806;2023-06-22T08:34:51;7.60;;;4.47;;
35667;SDS011;22158;59.280;17.806;2023-06-22T08:37:17;6.80;;;4.15;;
35667;SDS011;22158;59.280;17.806;2023-06-22T08:39:43;11.40;;;4.97;;
35667;SDS011;22158;59.280;17.806;2023-06-22T08:42:08;7.93;;;4.70;;
35667;SDS011;22158;59.280;17.806;2023-06-22T08:44:34;5.65;;;3.80;;
35667;SDS011;22158;59.280;17.806;2023-06-22T08:47:00;8.55;;;4.43;;
35667;SDS011;22158;59.280;17.806;2023-06-22T08:49:25;6.85;;;3.85;;
35667;SDS011;22158;59.280;17.806;2023-06-22T08:51:51;5.50;;;4.38;;
35667;SDS011;22158;59.280;17.806;2023-06-22T08:54:18;7.50;;;4.40;;
35667;SDS011;22158;59.280;17.806;2023-06-22T08:56:44;11.98;;;4.55;;
35667;SDS011;22158;59.280;17.806;2023-06-22T08:59:09;7.60;;;4.53;;
35667;SDS011;22158;59.280;17.806;2023-06-22T09:01:35;6.72;;;4.13;;
35667;SDS011;22158;59.280;17.806;2023-06-22T09:04:01;7.55;;;5.45;;
35667;SDS011;22158;59.280;17.806;2023-06-22T09:06:26;7.10;;;4.32;;
35667;SDS011;22158;59.280;17.806;2023-06-22T09:08:52;6.60;;;3.67;;
35667;SDS011;22158;59.280;17.806;2023-06-22T09:11:17;6.50;;;4.07;;
35667;SDS011;22158;59.280;17.806;2023-06-22T09:13:43;8.38;;;4.18;;
35667;SDS011;22158;59.280;17.806;2023-06-22T09:16:09;4.75;;;3.50;;
35667;SDS011;22158;59.280;17.806;2023-06-22T09:18:35;7.65;;;3.85;;
35667;SDS011;22158;59.280;17.806;2023-06-22T09:21:01;7.80;;;4.07;;
35667;SDS011;22158;59.280;17.806;2023-06-22T09:23:27;6.03;;;3.75;;
35667;SDS011;22158;59.280;17.806;2023-06-22T09:25:52;8.85;;;4.38;;
35667;SDS011;22158;59.280;17.806;2023-06-22T09:28:18;8.35;;;3.97;;
35667;SDS011;22158;59.280;17.806;2023-06-22T09:30:43;5.55;;;4.03;;
35667;SDS011;22158;59.280;17.806;2023-06-22T09:33:09;6.20;;;3.70;;
35667;SDS011;22158;59.280;17.806;2023-06-22T09:35:35;7.05;;;4.25;;
35667;SDS011;22158;59.280;17.806;2023-06-22T09:38:00;5.18;;;4.00;;
35667;SDS011;22158;59.280;17.806;2023-06-22T09:40:26;7.47;;;3.70;;
35667;SDS011;22158;59.280;17.806;2023-06-22T09:42:51;6.25;;;3.28;;
35667;SDS011;22158;59.280;17.806;2023-06-22T09:45:17;6.60;;;4.45;;
35667;SDS011;22158;59.280;17.806;2023-06-22T09:47:43;8.25;;;4.05;;
35667;SDS011;22158;59.280;17.806;2023-06-22T09:50:08;8.02;;;3.72;;
35667;SDS011;22158;59.280;17.806;2023-06-22T09:52:34;5.32;;;3.80;;
35667;SDS011;22158;59.280;17.806;2023-06-22T09:55:00;6.03;;;4.13;;
35667;SDS011;22158;59.280;17.806;2023-06-22T09:57:25;7.57;;;3.63;;
35667;SDS011;22158;59.280;17.806;2023-06-22T09:59:51;7.47;;;3.90;;
35667;SDS011;22158;59.280;17.806;2023-06-22T10:02:16;6.38;;;3.83;;
35667;SDS011;22158;59.280;17.806;2023-06-22T10:04:42;6.35;;;3.53;;
35667;SDS011;22158;59.280;17.806;2023-06-22T10:07:07;5.80;;;3.17;;
35667;SDS011;22158;59.280;17.806;2023-06-22T10:09:33;6.30;;;3.30;;
35667;SDS011;22158;59.280;17.806;2023-06-22T10:11:59;6.97;;;3.58;;
35667;SDS011;22158;59.280;17.806;2023-06-22T10:14:24;8.98;;;3.35;;
35667;SDS011;22158;59.280;17.806;2023-06-22T10:16:51;6.65;;;3.42;;
35667;SDS011;22158;59.280;17.806;2023-06-22T10:19:17;10.32;;;3.22;;
35667;SDS011;22158;59.280;17.806;2023-06-22T10:21:43;5.63;;;3.15;;
35667;SDS011;22158;59.280;17.806;2023-06-22T10:24:08;5.35;;;3.47;;
35667;SDS011;22158;59.280;17.806;2023-06-22T10:26:34;4.43;;;2.75;;
35667;SDS011;22158;59.280;17.806;2023-06-22T10:29:01;6.30;;;2.80;;
35667;SDS011;22158;59.280;17.806;2023-06-22T10:31:27;6.45;;;3.05;;
35667;SDS011;22158;59.280;17.806;2023-06-22T10:33:54;5.55;;;3.15;;
35667;SDS011;22158;59.280;17.806;2023-06-22T10:36:20;7.88;;;3.15;;
35667;SDS011;22158;59.280;17.806;2023-06-22T10:38:46;6.80;;;2.90;;
35667;SDS011;22158;59.280;17.806;2023-06-22T10:41:13;7.43;;;2.65;;
35667;SDS011;22158;59.280;17.806;2023-06-22T10:43:38;6.72;;;2.65;;
35667;SDS011;22158;59.280;17.806;2023-06-22T10:46:04;10.43;;;2.97;;
35667;SDS011;22158;59.280;17.806;2023-06-22T10:48:30;5.93;;;2.92;;
35667;SDS011;22158;59.280;17.806;2023-06-22T10:50:55;5.15;;;2.65;;
35667;SDS011;22158;59.280;17.806;2023-06-22T10:53:21;4.25;;;2.40;;
35667;SDS011;22158;59.280;17.806;2023-06-22T10:55:47;4.35;;;2.58;;
35667;SDS011;22158;59.280;17.806;2023-06-22T10:58:12;3.63;;;2.50;;
35667;SDS011;22158;59.280;17.806;2023-06-22T11:00:38;6.35;;;3.20;;
35667;SDS011;22158;59.280;17.806;2023-06-22T11:03:04;4.90;;;2.78;;
35667;SDS011;22158;59.280;17.806;2023-06-22T11:05:29;7.28;;;2.55;;
35667;SDS011;22158;59.280;17.806;2023-06-22T11:07:55;4.88;;;2.70;;
35667;SDS011;22158;59.280;17.806;2023-06-22T11:10:20;5.88;;;2.90;;
35667;SDS011;22158;59.280;17.806;2023-06-22T11:12:46;5.38;;;2.83;;
35667;SDS011;22158;59.280;17.806;2023-06-22T11:15:12;7.00;;;2.55;;
35667;SDS011;22158;59.280;17.806;2023-06-22T11:17:37;9.00;;;2.65;;
35667;SDS011;22158;59.280;17.806;2023-06-22T11:20:03;6.63;;;2.80;;
35667;SDS011;22158;59.280;17.806;2023-06-22T11:22:35;4.65;;;2.42;;
35667;SDS011;22158;59.280;17.806;2023-06-22T11:25:04;8.73;;;2.60;;
35667;SDS011;22158;59.280;17.806;2023-06-22T11:27:30;7.68;;;3.22;;
35667;SDS011;22158;59.280;17.806;2023-06-22T11:29:56;5.30;;;2.38;;
35667;SDS011;22158;59.280;17.806;2023-06-22T11:32:22;5.15;;;2.33;;
35667;SDS011;22158;59.280;17.806;2023-06-22T11:34:48;6.18;;;2.03;;
35667;SDS011;22158;59.280;17.806;2023-06-22T11:37:13;4.50;;;2.80;;
35667;SDS011;22158;59.280;17.806;2023-06-22T11:39:40;7.47;;;2.72;;
35667;SDS011;22158;59.280;17.806;2023-06-22T11:42:06;4.00;;;2.15;;
35667;SDS011;22158;59.280;17.806;2023-06-22T11:44:33;6.85;;;2.65;;
35667;SDS011;22158;59.280;17.806;2023-06-22T11:46:58;4.32;;;2.38;;
35667;SDS011;22158;59.280;17.806;2023-06-22T11:49:26;6.55;;;2.47;;
35667;SDS011;22158;59.280;17.806;2023-06-22T11:51:51;3.92;;;2.20;;
35667;SDS011;22158;59.280;17.806;2023-06-22T11:54:17;3.10;;;2.08;;
35667;SDS011;22158;59.280;17.806;2023-06-22T11:56:43;3.67;;;2.13;;
35667;SDS011;22158;59.280;17.806;2023-06-22T11:59:08;4.57;;;2.55;;
35667;SDS011;22158;59.280;17.806;2023-06-22T12:01:34;5.03;;;2.35;;
35667;SDS011;22158;59.280;17.806;2023-06-22T12:03:59;8.57;;;2.35;;
35667;SDS011;22158;59.280;17.806;2023-06-22T12:06:25;4.05;;;2.13;;
35667;SDS011;22158;59.280;17.806;2023-06-22T12:08:50;4.15;;;2.42;;
35667;SDS011;22158;59.280;17.806;2023-06-22T12:11:16;6.40;;;2.60;;
35667;SDS011;22158;59.280;17.806;2023-06-22T12:13:42;4.13;;;2.30;;
35667;SDS011;22158;59.280;17.806;2023-06-22T12:16:07;3.60;;;2.30;;
35667;SDS011;22158;59.280;17.806;2023-06-22T12:18:33;5.13;;;2.33;;
35667;SDS011;22158;59.280;17.806;2023-06-22T12:20:58;5.13;;;2.33;;
35667;SDS011;22158;59.280;17.806;2023-06-22T12:23:24;5.72;;;2.70;;
35667;SDS011;22158;59.280;17.806;2023-06-22T12:25:50;3.58;;;2.40;;
35667;SDS011;22158;59.280;17.806;2023-06-22T12:28:15;6.13;;;2.40;;
35667;SDS011;22158;59.280;17.806;2023-06-22T12:30:41;4.03;;;2.78;;
35667;SDS011;22158;59.280;17.806;2023-06-22T12:33:06;3.75;;;2.30;;
35667;SDS011;22158;59.280;17.806;2023-06-22T12:35:32;10.93;;;2.63;;
35667;SDS011;22158;59.280;17.806;2023-06-22T12:37:58;9.43;;;2.97;;
35667;SDS011;22158;59.280;17.806;2023-06-22T12:40:23;4.72;;;2.20;;
35667;SDS011;22158;59.280;17.806;2023-06-22T12:42:49;4.35;;;2.60;;
35667;SDS011;22158;59.280;17.806;2023-06-22T12:45:15;4.10;;;3.03;;
35667;SDS011;22158;59.280;17.806;2023-06-22T12:47:40;7.20;;;2.65;;
35667;SDS011;22158;59.280;17.806;2023-06-22T12:50:06;7.35;;;3.15;;
35667;SDS011;22158;59.280;17.806;2023-06-22T12:52:32;4.75;;;2.67;;
35667;SDS011;22158;59.280;17.806;2023-06-22T12:54:58;6.22;;;2.75;;
35667;SDS011;22158;59.280;17.806;2023-06-22T12:57:23;3.63;;;2.65;;
35667;SDS011;22158;59.280;17.806;2023-06-22T12:59:50;3.20;;;2.38;;
35667;SDS011;22158;59.280;17.806;2023-06-22T13:02:15;6.07;;;2.97;;
35667;SDS011;22158;59.280;17.806;2023-06-22T13:04:41;5.05;;;3.45;;
35667;SDS011;22158;59.280;17.806;2023-06-22T13:07:07;6.20;;;2.78;;
35667;SDS011;22158;59.280;17.806;2023-06-22T13:09:33;3.97;;;3.08;;
35667;SDS011;22158;59.280;17.806;2023-06-22T13:12:01;6.90;;;3.20;;
35667;SDS011;22158;59.280;17.806;2023-06-22T13:14:27;8.50;;;2.90;;
35667;SDS011;22158;59.280;17.806;2023-06-22T13:16:53;5.20;;;3.28;;
35667;SDS011;22158;59.280;17.806;2023-06-22T13:19:18;6.78;;;2.85;;
35667;SDS011;22158;59.280;17.806;2023-06-22T13:21:44;3.20;;;2.45;;
35667;SDS011;22158;59.280;17.806;2023-06-22T13:24:09;6.32;;;2.90;;
35667;SDS011;22158;59.280;17.806;2023-06-22T13:26:35;7.28;;;3.05;;
35667;SDS011;22158;59.280;17.806;2023-06-22T13:29:01;5.47;;;3.10;;
35667;SDS011;22158;59.280;17.806;2023-06-22T13:31:26;3.92;;;2.92;;
35667;SDS011;22158;59.280;17.806;2023-06-22T13:33:52;3.90;;;2.78;;
35667;SDS011;22158;59.280;17.806;2023-06-22T13:36:18;7.78;;;3.08;;
35667;SDS011;22158;59.280;17.806;2023-06-22T13:38:44;3.78;;;2.70;;
35667;SDS011;22158;59.280;17.806;2023-06-22T13:41:10;7.57;;;3.10;;
35667;SDS011;22158;59.280;17.806;2023-06-22T13:43:36;6.32;;;2.75;;
35667;SDS011;22158;59.280;17.806;2023-06-22T13:46:01;3.33;;;2.70;;
35667;SDS011;22158;59.280;17.806;2023-06-22T13:48:27;6.25;;;2.60;;
35667;SDS011;22158;59.280;17.806;2023-06-22T13:50:53;5.10;;;2.55;;
35667;SDS011;22158;59.280;17.806;2023-06-22T13:53:19;6.90;;;2.25;;
35667;SDS011;22158;59.280;17.806;2023-06-22T13:55:45;5.82;;;3.13;;
35667;SDS011;22158;59.280;17.806;2023-06-22T13:58:11;7.25;;;3.05;;
35667;SDS011;22158;59.280;17.806;2023-06-22T14:00:37;6.25;;;2.42;;
35667;SDS011;22158;59.280;17.806;2023-06-22T14:03:02;7.28;;;3.85;;
35667;SDS011;22158;59.280;17.806;2023-06-22T14:05:28;5.63;;;3.10;;
35667;SDS011;22158;59.280;17.806;2023-06-22T14:07:54;6.35;;;3.03;;
35667;SDS011;22158;59.280;17.806;2023-06-22T14:10:19;5.95;;;3.08;;
35667;SDS011;22158;59.280;17.806;2023-06-22T14:12:45;2.90;;;2.55;;
35667;SDS011;22158;59.280;17.806;2023-06-22T14:15:11;5.05;;;2.60;;
35667;SDS011;22158;59.280;17.806;2023-06-22T14:17:36;3.92;;;3.08;;
35667;SDS011;22158;59.280;17.806;2023-06-22T14:20:02;5.32;;;2.20;;
35667;SDS011;22158;59.280;17.806;2023-06-22T14:22:28;7.28;;;2.72;;
35667;SDS011;22158;59.280;17.806;2023-06-22T14:24:54;4.22;;;2.58;;
35667;SDS011;22158;59.280;17.806;2023-06-22T14:27:22;5.88;;;2.78;;
35667;SDS011;22158;59.280;17.806;2023-06-22T14:29:48;3.25;;;2.40;;
35667;SDS011;22158;59.280;17.806;2023-06-22T14:32:13;5.97;;;2.85;;